createdAt,value
2018-11-11T00:00:17.720Z,185
2018-11-11T00:01:17.774Z,198.6
2018-11-11T00:02:17.631Z,203.1
2018-11-11T00:03:17.658Z,199
2018-11-11T00:04:17.689Z,201.6
2018-11-11T00:05:17.702Z,190.9
2018-11-11T00:06:17.684Z,189.1
2018-11-11T00:07:17.709Z,193.4
2018-11-11T00:08:17.618Z,201.3
2018-11-11T00:09:17.692Z,199.4
2018-11-11T00:10:17.675Z,200.1
2018-11-11T00:11:17.697Z,198.5
2018-11-11T00:12:17.743Z,189.7
2018-11-11T00:13:17.645Z,189.2
2018-11-11T00:14:17.667Z,186.9
2018-11-11T00:15:17.735Z,186
2018-11-11T00:16:17.714Z,183.3
2018-11-11T00:17:17.685Z,186.1
2018-11-11T00:18:17.598Z,182.8
2018-11-11T00:19:17.646Z,189.3
2018-11-11T00:20:17.716Z,194.9
2018-11-11T00:21:17.737Z,194.4
2018-11-11T00:22:17.674Z,203
2018-11-11T00:23:17.775Z,203.2
2018-11-11T00:24:17.661Z,200.7
2018-11-11T00:25:17.725Z,200.9
2018-11-11T00:26:17.659Z,201.9
2018-11-11T00:27:17.706Z,196.1
2018-11-11T00:28:17.611Z,185.6
2018-11-11T00:29:17.669Z,179
2018-11-11T00:30:17.671Z,174.4
2018-11-11T00:31:17.734Z,177.3
2018-11-11T00:32:17.645Z,173.3
2018-11-11T00:33:17.639Z,171.5
2018-11-11T00:34:20.084Z,170.7
2018-11-11T00:35:17.586Z,170.3
2018-11-11T00:36:17.665Z,173.6
2018-11-11T00:37:17.736Z,176.4
2018-11-11T00:38:17.658Z,176
2018-11-11T00:39:17.684Z,183.8
2018-11-11T00:40:17.700Z,200.6
2018-11-11T00:41:17.682Z,208.2
2018-11-11T00:42:17.769Z,205.1
2018-11-11T00:43:17.674Z,209.2
2018-11-11T00:44:17.708Z,211.6
2018-11-11T00:45:21.145Z,203.8
2018-11-11T00:46:17.589Z,190.2
2018-11-11T00:47:17.761Z,187.9
2018-11-11T00:48:17.631Z,181.8
2018-11-11T00:49:17.787Z,180.2
2018-11-11T00:50:17.638Z,174.7
2018-11-11T00:51:17.692Z,172.2
2018-11-11T00:52:17.734Z,172.9
2018-11-11T00:53:17.650Z,174.4
2018-11-11T00:54:17.668Z,166.4
2018-11-11T00:55:17.761Z,178.1
2018-11-11T00:56:17.640Z,181.8
2018-11-11T00:57:17.672Z,175.4
2018-11-11T00:58:17.715Z,172.2
2018-11-11T00:59:17.790Z,171
2018-11-11T01:00:17.806Z,166.2
2018-11-11T01:01:17.668Z,161.4
2018-11-11T01:02:17.665Z,143.8
2018-11-11T01:03:17.697Z,133.5
2018-11-11T01:04:17.722Z,128.9
2018-11-11T01:05:17.764Z,129.1
2018-11-11T01:06:17.708Z,126.9
2018-11-11T01:07:17.714Z,128.5
2018-11-11T01:08:17.740Z,124.7
2018-11-11T01:09:17.711Z,118.1
2018-11-11T01:10:17.734Z,121.8
2018-11-11T01:11:17.719Z,108.3
2018-11-11T01:12:17.844Z,92.7
2018-11-11T01:13:17.764Z,85.7
2018-11-11T01:14:17.691Z,82.6
2018-11-11T01:15:17.648Z,81.2
2018-11-11T01:16:17.640Z,80.6
2018-11-11T01:17:17.604Z,80.3
2018-11-11T01:18:17.729Z,80.1
2018-11-11T01:19:17.648Z,99.4
2018-11-11T01:20:17.787Z,113.7
2018-11-11T01:21:17.681Z,123.5
2018-11-11T01:22:17.624Z,131
2018-11-11T01:23:17.663Z,132.3
2018-11-11T01:24:17.685Z,136.8
2018-11-11T01:25:17.696Z,132.9
2018-11-11T01:26:17.639Z,128.9
2018-11-11T01:27:17.619Z,126.8
2018-11-11T01:28:17.646Z,125.8
2018-11-11T01:29:17.709Z,125.4
2018-11-11T01:30:17.727Z,125.2
2018-11-11T01:31:17.644Z,125.1
2018-11-11T01:32:17.615Z,125
2018-11-11T01:33:17.703Z,125
2018-11-11T01:34:20.170Z,124
2018-11-11T01:35:17.716Z,120.8
2018-11-11T01:36:17.661Z,105.8
2018-11-11T01:37:17.622Z,105.1
2018-11-11T01:38:17.651Z,116
2018-11-11T01:39:17.751Z,121.8
2018-11-11T01:40:17.600Z,126.2
2018-11-11T01:41:17.677Z,132.4
2018-11-11T01:42:18.293Z,138
2018-11-11T01:43:17.635Z,134.1
2018-11-11T01:44:17.716Z,135.8
2018-11-11T01:45:18.354Z,133.1
2018-11-11T01:46:18.580Z,133.7
2018-11-11T01:47:17.711Z,137
2018-11-11T01:48:17.618Z,138.8
2018-11-11T01:49:17.645Z,151.5
2018-11-11T01:50:17.659Z,159.3
2018-11-11T01:51:17.673Z,164
2018-11-11T01:52:17.650Z,165.7
2018-11-11T01:53:17.640Z,154.1
2018-11-11T01:54:17.634Z,141.3
2018-11-11T01:55:17.698Z,138.1
2018-11-11T01:56:17.726Z,138
2018-11-11T01:57:17.621Z,131.2
2018-11-11T01:58:17.645Z,126.6
2018-11-11T01:59:17.667Z,132
2018-11-11T02:00:17.672Z,138.8
2018-11-11T02:01:17.653Z,131.2
2018-11-11T02:02:17.611Z,127.8
2018-11-11T02:03:17.691Z,126.3
2018-11-11T02:04:17.743Z,125.6
2018-11-11T02:05:17.749Z,125.7
2018-11-11T02:06:17.657Z,128.1
2018-11-11T02:07:17.648Z,126.7
2018-11-11T02:08:17.691Z,125.5
2018-11-11T02:09:17.642Z,125.2
2018-11-11T02:10:17.663Z,126.9
2018-11-11T02:11:17.598Z,111
2018-11-11T02:12:17.612Z,111.6
2018-11-11T02:13:17.682Z,120.9
2018-11-11T02:14:17.618Z,121.9
2018-11-11T02:15:17.606Z,114.1
2018-11-11T02:16:17.620Z,116.6
2018-11-11T02:17:17.641Z,126.4
2018-11-11T02:18:17.671Z,128.3
2018-11-11T02:19:17.590Z,133
2018-11-11T02:20:17.656Z,132.9
2018-11-11T02:21:17.833Z,131.6
2018-11-11T02:22:17.617Z,127.7
2018-11-11T02:23:19.096Z,124.7
2018-11-11T02:24:17.658Z,124.3
2018-11-11T02:25:17.719Z,124.7
2018-11-11T02:26:17.632Z,125.5
2018-11-11T02:27:17.672Z,115.4
2018-11-11T02:28:17.636Z,131.3
2018-11-11T02:29:17.603Z,127.8
2018-11-11T02:30:17.755Z,119.4
2018-11-11T02:31:17.641Z,133.9
2018-11-11T02:32:17.632Z,133.6
2018-11-11T02:33:17.656Z,128.9
2018-11-11T02:34:17.713Z,131.9
2018-11-11T02:35:17.630Z,140.3
2018-11-11T02:36:17.619Z,144.2
2018-11-11T02:37:17.746Z,146
2018-11-11T02:38:17.716Z,145.2
2018-11-11T02:39:17.579Z,134.4
2018-11-11T02:40:17.629Z,129.3
2018-11-11T02:41:17.723Z,127
2018-11-11T02:42:17.627Z,125.9
2018-11-11T02:43:17.613Z,125.4
2018-11-11T02:44:17.631Z,125.2
2018-11-11T02:45:19.670Z,125.1
2018-11-11T02:46:17.674Z,125
2018-11-11T02:47:17.606Z,125
2018-11-11T02:48:17.666Z,125
2018-11-11T02:49:17.555Z,132.4
2018-11-11T02:50:17.590Z,130
2018-11-11T02:51:17.680Z,125.3
2018-11-11T02:52:17.620Z,123.1
2018-11-11T02:53:17.611Z,123.4
2018-11-11T02:54:17.598Z,124.3
2018-11-11T02:55:17.595Z,124.7
2018-11-11T02:56:20.465Z,124.8
2018-11-11T02:57:17.627Z,124.9
2018-11-11T02:58:17.707Z,125
2018-11-11T02:59:17.577Z,125
2018-11-11T03:00:17.636Z,117.3
2018-11-11T03:01:17.688Z,121.5
2018-11-11T03:02:17.632Z,123.4
2018-11-11T03:03:17.668Z,129
2018-11-11T03:04:17.814Z,143.8
2018-11-11T03:05:17.602Z,147.3
2018-11-11T03:06:17.702Z,151.5
2018-11-11T03:07:17.596Z,152.7
2018-11-11T03:08:18.190Z,159.4
2018-11-11T03:09:17.593Z,153.3
2018-11-11T03:10:17.625Z,159.5
2018-11-11T03:11:17.802Z,165.8
2018-11-11T03:12:17.612Z,165.8
2018-11-11T03:13:17.570Z,164.4
2018-11-11T03:14:17.607Z,152.7
2018-11-11T03:15:17.715Z,159.1
2018-11-11T03:16:17.643Z,164
2018-11-11T03:17:17.601Z,165.1
2018-11-11T03:18:17.602Z,164
2018-11-11T03:19:17.610Z,172.3
2018-11-11T03:20:17.792Z,171.9
2018-11-11T03:21:17.683Z,175
2018-11-11T03:22:17.615Z,180.7
2018-11-11T03:23:17.658Z,178.7
2018-11-11T03:24:17.643Z,180.8
2018-11-11T03:25:17.650Z,176.7
2018-11-11T03:26:17.585Z,177.4
2018-11-11T03:27:17.599Z,176.2
2018-11-11T03:28:17.628Z,176
2018-11-11T03:29:17.670Z,173.5
2018-11-11T03:30:17.791Z,175
2018-11-11T03:31:17.617Z,177.3
2018-11-11T03:32:17.623Z,169
2018-11-11T03:33:17.658Z,157.6
2018-11-11T03:34:17.672Z,159
2018-11-11T03:35:17.624Z,165.9
2018-11-11T03:36:17.626Z,168.3
2018-11-11T03:37:17.612Z,175.2
2018-11-11T03:38:17.661Z,172.5
2018-11-11T03:39:17.656Z,174.2
2018-11-11T03:40:17.626Z,175.7
2018-11-11T03:41:17.572Z,173.7
2018-11-11T03:42:17.681Z,171.5
2018-11-11T03:43:17.645Z,165.5
2018-11-11T03:44:17.638Z,168.6
2018-11-11T03:45:17.611Z,172.5
2018-11-11T03:46:17.559Z,168.6
2018-11-11T03:47:17.610Z,175.8
2018-11-11T03:48:17.717Z,180.3
2018-11-11T03:49:17.638Z,182.3
2018-11-11T03:50:17.601Z,186.3
2018-11-11T03:51:17.611Z,183.8
2018-11-11T03:52:17.605Z,192.2
2018-11-11T03:53:17.675Z,202.8
2018-11-11T03:54:20.549Z,204.5
2018-11-11T03:55:17.614Z,187.6
2018-11-11T03:56:19.456Z,178.1
2018-11-11T03:57:17.608Z,195.2
2018-11-11T03:58:17.552Z,191.2
2018-11-11T03:59:17.655Z,200.1
2018-11-11T04:00:17.587Z,202.3
2018-11-11T04:01:17.632Z,201.7
2018-11-11T04:02:17.600Z,195.1
2018-11-11T04:03:17.596Z,189.4
2018-11-11T04:04:17.674Z,184.9
2018-11-11T04:05:17.595Z,184.5
2018-11-11T04:06:17.575Z,192.6
2018-11-11T04:07:17.580Z,193.1
2018-11-11T04:08:17.588Z,190
2018-11-11T04:09:17.628Z,191.8
2018-11-11T04:10:17.786Z,187
2018-11-11T04:11:17.576Z,186
2018-11-11T04:12:18.158Z,182.1
2018-11-11T04:13:17.570Z,189.1
2018-11-11T04:14:21.020Z,189.2
2018-11-11T04:15:17.611Z,192.6
2018-11-11T04:16:17.592Z,190.8
2018-11-11T04:17:17.585Z,185.4
2018-11-11T04:18:17.598Z,185.4
2018-11-11T04:19:17.559Z,187.9
2018-11-11T04:20:17.687Z,189.4
2018-11-11T04:21:17.552Z,193.7
2018-11-11T04:22:17.570Z,190.9
2018-11-11T04:23:20.010Z,191
2018-11-11T04:24:17.563Z,203.2
2018-11-11T04:25:17.705Z,203.6
2018-11-11T04:26:17.608Z,203.1
2018-11-11T04:27:17.580Z,200.8
2018-11-11T04:28:17.552Z,196.8
2018-11-11T04:29:17.625Z,194.8
2018-11-11T04:30:17.546Z,198.8
2018-11-11T04:31:17.675Z,205
2018-11-11T04:32:17.595Z,195.8
2018-11-11T04:33:17.562Z,196.4
2018-11-11T04:34:17.951Z,192.8
2018-11-11T04:35:17.613Z,195.8
2018-11-11T04:36:17.635Z,195.4
2018-11-11T04:37:17.533Z,196.1
2018-11-11T04:38:17.588Z,202.4
2018-11-11T04:39:17.775Z,206.7
2018-11-11T04:40:17.575Z,211
2018-11-11T04:41:17.669Z,207
2018-11-11T04:42:17.646Z,198.9
2018-11-11T04:43:17.582Z,194.6
2018-11-11T04:44:17.587Z,196.2
2018-11-11T04:45:20.608Z,195.5
2018-11-11T04:46:17.797Z,193.2
2018-11-11T04:47:17.566Z,196.9
2018-11-11T04:48:17.596Z,199.1
2018-11-11T04:49:17.627Z,197.4
2018-11-11T04:50:17.559Z,195.8
2018-11-11T04:51:17.565Z,197.3
2018-11-11T04:52:17.627Z,197.6
2018-11-11T04:53:17.578Z,199.3
2018-11-11T04:54:17.584Z,197.2
2018-11-11T04:55:17.577Z,194
2018-11-11T04:56:17.590Z,190.4
2018-11-11T04:57:17.670Z,187.6
2018-11-11T04:58:17.660Z,185.1
2018-11-11T04:59:17.609Z,185.3
2018-11-11T05:00:17.573Z,190.4
2018-11-11T05:01:17.675Z,189.8
2018-11-11T05:02:17.577Z,194.9
2018-11-11T05:03:17.609Z,191.9
2018-11-11T05:04:17.609Z,192.7
2018-11-11T05:05:17.613Z,187.3
2018-11-11T05:06:17.610Z,184.6
2018-11-11T05:07:17.591Z,183.8
2018-11-11T05:08:17.648Z,183.9
2018-11-11T05:09:17.575Z,181.8
2018-11-11T05:10:17.569Z,184
2018-11-11T05:11:17.524Z,183.5
2018-11-11T05:12:17.601Z,189.4
2018-11-11T05:13:17.644Z,187.9
2018-11-11T05:14:17.540Z,190
2018-11-11T05:15:17.599Z,196.8
2018-11-11T05:16:17.552Z,195.5
2018-11-11T05:17:17.587Z,193.7
2018-11-11T05:18:17.674Z,189.5
2018-11-11T05:19:17.620Z,187.1
2018-11-11T05:20:17.589Z,182.1
2018-11-11T05:21:17.644Z,180.6
2018-11-11T05:22:17.616Z,178.2
2018-11-11T05:23:17.673Z,173.3
2018-11-11T05:24:17.597Z,169.9
2018-11-11T05:25:17.571Z,173
2018-11-11T05:26:17.571Z,167.8
2018-11-11T05:27:17.550Z,166.7
2018-11-11T05:28:17.558Z,167.1
2018-11-11T05:29:17.613Z,160.4
2018-11-11T05:30:17.550Z,162.2
2018-11-11T05:31:17.551Z,162.7
2018-11-11T05:32:17.667Z,161.5
2018-11-11T05:33:17.558Z,165.1
2018-11-11T05:34:19.923Z,156.3
2018-11-11T05:35:17.553Z,153.1
2018-11-11T05:36:17.574Z,162.4
2018-11-11T05:37:17.617Z,166.5
2018-11-11T05:38:17.739Z,182.4
2018-11-11T05:39:17.555Z,189.8
2018-11-11T05:40:17.542Z,164.7
2018-11-11T05:41:17.572Z,168.4
2018-11-11T05:42:17.727Z,167.3
2018-11-11T05:43:17.679Z,168.7
2018-11-11T05:44:17.539Z,159.7
2018-11-11T05:45:20.349Z,164.9
2018-11-11T05:46:17.608Z,163.8
2018-11-11T05:47:17.558Z,175.6
2018-11-11T05:48:17.528Z,176.8
2018-11-11T05:49:17.645Z,173.5
2018-11-11T05:50:17.659Z,178.5
2018-11-11T05:51:17.509Z,173.5
2018-11-11T05:52:17.571Z,174.6
2018-11-11T05:53:17.555Z,183.4
2018-11-11T05:54:17.600Z,194.4
2018-11-11T05:55:17.549Z,202.9
2018-11-11T05:56:17.535Z,207.7
2018-11-11T05:57:17.635Z,213.8
2018-11-11T05:58:17.594Z,212.9
2018-11-11T05:59:17.510Z,212.5
2018-11-11T06:00:17.623Z,202.6
2018-11-11T06:01:17.586Z,193.5
2018-11-11T06:02:17.597Z,186.1
2018-11-11T06:03:17.536Z,185.7
2018-11-11T06:04:27.445Z,186
2018-11-11T06:05:17.599Z,184.7
2018-11-11T06:06:17.560Z,191.7
2018-11-11T06:07:17.529Z,192.7
2018-11-11T06:08:17.541Z,197
2018-11-11T06:09:17.563Z,205.4
2018-11-11T06:10:17.694Z,211.2
2018-11-11T06:11:17.542Z,212.2
2018-11-11T06:12:18.655Z,214.7
2018-11-11T06:13:17.559Z,212.4
2018-11-11T06:14:17.524Z,207.7
2018-11-11T06:15:17.581Z,207
2018-11-11T06:16:17.558Z,207.3
2018-11-11T06:17:17.592Z,205.5
2018-11-11T06:18:17.583Z,201.2
2018-11-11T06:19:17.654Z,191.4
2018-11-11T06:20:17.615Z,187.9
2018-11-11T06:21:17.537Z,187.5
2018-11-11T06:22:17.581Z,184.8
2018-11-11T06:23:19.647Z,182.1
2018-11-11T06:24:17.529Z,188.4
2018-11-11T06:25:17.623Z,199.9
2018-11-11T06:26:17.498Z,201.4
2018-11-11T06:27:17.629Z,201.5
2018-11-11T06:28:17.611Z,196.5
2018-11-11T06:29:17.583Z,178.3
2018-11-11T06:30:17.505Z,165.2
2018-11-11T06:31:17.637Z,168.5
2018-11-11T06:32:17.535Z,170.2
2018-11-11T06:33:17.615Z,172.8
2018-11-11T06:34:17.729Z,171.6
2018-11-11T06:35:17.522Z,174.3
2018-11-11T06:36:17.516Z,184.9
2018-11-11T06:37:17.542Z,196.6
2018-11-11T06:38:17.644Z,206.3
2018-11-11T06:39:17.535Z,206.3
2018-11-11T06:40:17.506Z,205
2018-11-11T06:41:17.541Z,208.2
2018-11-11T06:42:17.508Z,202.3
2018-11-11T06:43:17.592Z,194.4
2018-11-11T06:44:17.600Z,189.3
2018-11-11T06:45:17.555Z,198.3
2018-11-11T06:46:17.510Z,204.2
2018-11-11T06:47:17.566Z,209.6
2018-11-11T06:48:17.691Z,210.4
2018-11-11T06:49:17.559Z,210.8
2018-11-11T06:50:18.203Z,204.4
2018-11-11T06:51:17.547Z,192.7
2018-11-11T06:52:17.557Z,184.9
2018-11-11T06:53:17.565Z,176.8
2018-11-11T06:54:17.506Z,173.1
2018-11-11T06:55:17.559Z,165.4
2018-11-11T06:56:17.537Z,153.8
2018-11-11T06:57:17.588Z,140.7
2018-11-11T06:58:17.693Z,155.7
2018-11-11T06:59:17.534Z,152.4
2018-11-11T07:00:17.559Z,154.6
2018-11-11T07:01:17.642Z,150.6
2018-11-11T07:02:17.532Z,139.6
2018-11-11T07:03:17.593Z,134.3
2018-11-11T07:04:17.565Z,153.8
2018-11-11T07:05:17.517Z,162.7
2018-11-11T07:06:17.591Z,166.7
2018-11-11T07:07:17.548Z,168.5
2018-11-11T07:08:17.562Z,169.3
2018-11-11T07:09:17.534Z,156.6
2018-11-11T07:10:17.501Z,127.7
2018-11-11T07:11:17.638Z,92.1
2018-11-11T07:12:17.525Z,85.4
2018-11-11T07:13:17.616Z,75.6
2018-11-11T07:14:17.640Z,78
2018-11-11T07:15:17.565Z,71.2
2018-11-11T07:16:17.517Z,65.5
2018-11-11T07:17:17.525Z,73.3
2018-11-11T07:18:17.659Z,76.9
2018-11-11T07:19:17.485Z,84.5
2018-11-11T07:20:20.320Z,106.1
2018-11-11T07:21:17.503Z,116.8
2018-11-11T07:22:17.568Z,121.2
2018-11-11T07:23:21.205Z,123.2
2018-11-11T07:24:17.721Z,124.2
2018-11-11T07:25:17.570Z,124.6
2018-11-11T07:26:17.537Z,124.8
2018-11-11T07:27:17.507Z,124.9
2018-11-11T07:28:17.581Z,125
2018-11-11T07:29:17.501Z,173.9
2018-11-11T07:30:17.551Z,238.9
2018-11-11T07:31:17.507Z,252.8
2018-11-11T07:32:17.519Z,257.1
2018-11-11T07:33:17.596Z,258.7
2018-11-11T07:34:17.641Z,217.3
2018-11-11T07:35:17.506Z,215.9
2018-11-11T07:36:17.478Z,215.7
2018-11-11T07:37:17.549Z,207.2
2018-11-11T07:38:17.568Z,210.9
2018-11-11T07:39:17.627Z,231
2018-11-11T07:40:17.499Z,273.3
2018-11-11T07:41:17.596Z,317
2018-11-11T07:42:17.641Z,257.7
2018-11-11T07:43:17.499Z,240.7
2018-11-11T07:44:17.569Z,245.4
2018-11-11T07:45:17.520Z,251.4
2018-11-11T07:46:17.619Z,253.7
2018-11-11T07:47:17.554Z,253.7
2018-11-11T07:48:17.557Z,275.7
2018-11-11T07:49:17.574Z,253.7
2018-11-11T07:50:17.535Z,231.1
2018-11-11T07:51:17.573Z,222
2018-11-11T07:52:17.553Z,217.8
2018-11-11T07:53:17.544Z,214.2
2018-11-11T07:54:17.537Z,214.1
2018-11-11T07:55:17.632Z,217.5
2018-11-11T07:56:17.511Z,215.4
2018-11-11T07:57:17.512Z,215.7
2018-11-11T07:58:17.682Z,220.8
2018-11-11T07:59:17.629Z,225.2
2018-11-11T08:00:17.582Z,224.5
2018-11-11T08:01:19.213Z,220.4
2018-11-11T08:02:17.741Z,220.6
2018-11-11T08:03:17.539Z,221.6
2018-11-11T08:04:17.641Z,207
2018-11-11T08:05:17.590Z,205.8
2018-11-11T08:06:17.509Z,202.6
2018-11-11T08:07:17.591Z,199.2
2018-11-11T08:08:17.525Z,202
2018-11-11T08:09:17.542Z,202
2018-11-11T08:10:17.519Z,204.1
2018-11-11T08:11:17.831Z,203.3
2018-11-11T08:12:17.592Z,208.6
2018-11-11T08:13:17.551Z,206.4
2018-11-11T08:14:17.556Z,202.2
2018-11-11T08:15:17.508Z,206.3
2018-11-11T08:16:17.566Z,205.6
2018-11-11T08:17:17.578Z,205.7
2018-11-11T08:18:17.550Z,203.7
2018-11-11T08:19:17.530Z,207.4
2018-11-11T08:20:17.470Z,211.6
2018-11-11T08:21:17.662Z,211.8
2018-11-11T08:22:17.599Z,215.1
2018-11-11T08:23:17.530Z,216.6
2018-11-11T08:24:17.593Z,220.5
2018-11-11T08:25:17.627Z,216.5
2018-11-11T08:26:17.560Z,217.1
2018-11-11T08:27:17.581Z,218.5
2018-11-11T08:28:17.545Z,217.8
2018-11-11T08:29:17.530Z,215.5
2018-11-11T08:30:17.596Z,208
2018-11-11T08:31:17.493Z,212.3
2018-11-11T08:32:17.750Z,204.3
2018-11-11T08:33:17.562Z,205.4
2018-11-11T08:34:17.505Z,210.7
2018-11-11T08:35:17.531Z,214.1
2018-11-11T08:36:17.547Z,211
2018-11-11T08:37:17.576Z,213
2018-11-11T08:38:17.620Z,218.5
2018-11-11T08:39:17.622Z,222.7
2018-11-11T08:40:17.569Z,227.6
2018-11-11T08:41:17.540Z,225.8
2018-11-11T08:42:17.540Z,221.8
2018-11-11T08:43:17.513Z,219.2
2018-11-11T08:44:17.546Z,213.1
2018-11-11T08:45:17.521Z,213.6
2018-11-11T08:46:17.532Z,219
2018-11-11T08:47:17.601Z,216.1
2018-11-11T08:48:17.682Z,212.2
2018-11-11T08:49:17.514Z,218.8
2018-11-11T08:50:17.552Z,221.4
2018-11-11T08:51:17.512Z,212.7
2018-11-11T08:52:17.572Z,212.2
2018-11-11T08:53:17.511Z,217.2
2018-11-11T08:54:17.531Z,216.6
2018-11-11T08:55:17.528Z,218.2
2018-11-11T08:56:17.591Z,219.4
2018-11-11T08:57:17.538Z,212.4
2018-11-11T08:58:17.616Z,206.6
2018-11-11T08:59:17.538Z,210.2
2018-11-11T09:00:17.517Z,209.1
2018-11-11T09:01:21.533Z,208.9
2018-11-11T09:02:17.483Z,211.6
2018-11-11T09:03:18.094Z,212.9
2018-11-11T09:04:17.533Z,214
2018-11-11T09:05:17.505Z,213.2
2018-11-11T09:06:17.549Z,206.9
2018-11-11T09:07:17.495Z,201.1
2018-11-11T09:08:17.527Z,197.7
2018-11-11T09:09:17.601Z,191.9
2018-11-11T09:10:17.498Z,188.1
2018-11-11T09:11:17.698Z,183.9
2018-11-11T09:12:17.540Z,182.8
2018-11-11T09:13:17.597Z,187
2018-11-11T09:14:17.492Z,184.5
2018-11-11T09:15:17.480Z,185.7
2018-11-11T09:16:17.518Z,190.2
2018-11-11T09:17:17.660Z,189.9
2018-11-11T09:18:17.554Z,190.2
2018-11-11T09:19:17.584Z,192.5
2018-11-11T09:20:17.522Z,189.6
2018-11-11T09:21:17.684Z,184.2
2018-11-11T09:22:17.493Z,184.2
2018-11-11T09:23:20.812Z,180.1
2018-11-11T09:24:17.632Z,180.3
2018-11-11T09:25:17.567Z,180.6
2018-11-11T09:26:17.551Z,174.1
2018-11-11T09:27:17.529Z,177.3
2018-11-11T09:28:17.552Z,177.4
2018-11-11T09:29:17.533Z,177.6
2018-11-11T09:30:17.624Z,182.6
2018-11-11T09:31:17.526Z,183.9
2018-11-11T09:32:17.518Z,182.5
2018-11-11T09:33:17.529Z,184.9
2018-11-11T09:34:17.567Z,182.2
2018-11-11T09:35:17.681Z,183.2
2018-11-11T09:36:17.529Z,185.4
2018-11-11T09:37:17.518Z,191.1
2018-11-11T09:38:17.508Z,193.2
2018-11-11T09:39:17.636Z,187
2018-11-11T09:40:17.570Z,188
2018-11-11T09:41:17.506Z,181.4
2018-11-11T09:42:17.668Z,180.8
2018-11-11T09:43:17.493Z,180.1
2018-11-11T09:44:17.544Z,179.6
2018-11-11T09:45:17.555Z,181.3
2018-11-11T09:46:17.475Z,179.3
2018-11-11T09:47:17.522Z,180.4
2018-11-11T09:48:17.526Z,180.5
2018-11-11T09:49:17.524Z,177.7
2018-11-11T09:50:17.686Z,176.5
2018-11-11T09:51:17.488Z,175.1
2018-11-11T09:52:17.502Z,171.8
2018-11-11T09:53:17.460Z,172.3
2018-11-11T09:54:17.711Z,168.1
2018-11-11T09:55:17.524Z,172.3
2018-11-11T09:56:17.485Z,172.7
2018-11-11T09:57:17.482Z,174.6
2018-11-11T09:58:17.500Z,174.5
2018-11-11T09:59:17.481Z,173.8
2018-11-11T10:00:17.582Z,174.9
2018-11-11T10:01:17.489Z,169.4
2018-11-11T10:02:17.505Z,167.5
2018-11-11T10:03:17.527Z,165.5
2018-11-11T10:04:17.474Z,167.2
2018-11-11T10:05:17.534Z,161.2
2018-11-11T10:06:17.641Z,167.4
2018-11-11T10:07:17.642Z,166.6
2018-11-11T10:08:17.664Z,167.9
2018-11-11T10:09:17.473Z,171.2
2018-11-11T10:10:17.508Z,171.5
2018-11-11T10:11:17.510Z,172.6
2018-11-11T10:12:17.645Z,173
2018-11-11T10:13:17.526Z,176
2018-11-11T10:14:17.514Z,174.6
2018-11-11T10:15:17.493Z,170.7
2018-11-11T10:16:17.506Z,172.8
2018-11-11T10:17:17.496Z,173.1
2018-11-11T10:18:17.573Z,177
2018-11-11T10:19:17.467Z,179
2018-11-11T10:20:17.672Z,173.6
2018-11-11T10:21:17.561Z,171.4
2018-11-11T10:22:17.486Z,173.2
2018-11-11T10:23:18.030Z,174.8
2018-11-11T10:24:17.485Z,176.7
2018-11-11T10:25:17.530Z,180.6
2018-11-11T10:26:17.566Z,179
2018-11-11T10:27:17.689Z,181.6
2018-11-11T10:28:17.472Z,177.5
2018-11-11T10:29:17.706Z,175.5
2018-11-11T10:30:17.479Z,173.3
2018-11-11T10:31:17.580Z,166
2018-11-11T10:32:17.563Z,163.8
2018-11-11T10:33:17.631Z,165.4
2018-11-11T10:34:17.551Z,166.6
2018-11-11T10:35:17.469Z,166.2
2018-11-11T10:36:17.561Z,170.7
2018-11-11T10:37:17.631Z,170.8
2018-11-11T10:38:17.465Z,171.5
2018-11-11T10:39:17.649Z,166.4
2018-11-11T10:40:17.491Z,168.3
2018-11-11T10:41:17.565Z,166.1
2018-11-11T10:42:17.545Z,158.4
2018-11-11T10:43:17.509Z,161.9
2018-11-11T10:44:17.610Z,164.1
2018-11-11T10:45:17.494Z,154.5
2018-11-11T10:46:17.528Z,150
2018-11-11T10:47:17.548Z,163.5
2018-11-11T10:48:17.501Z,164.9
2018-11-11T10:49:17.496Z,160.3
2018-11-11T10:50:21.283Z,162.8
2018-11-11T10:51:17.526Z,156.5
2018-11-11T10:52:17.583Z,147.5
2018-11-11T10:53:17.520Z,146.1
2018-11-11T10:54:17.752Z,152.6
2018-11-11T10:55:17.449Z,154.2
2018-11-11T10:56:17.465Z,160.4
2018-11-11T10:57:17.533Z,167.1
2018-11-11T10:58:17.496Z,170
2018-11-11T10:59:17.521Z,165.8
2018-11-11T11:00:17.757Z,159.6
2018-11-11T11:01:19.354Z,162.7
2018-11-11T11:02:17.555Z,164.3
2018-11-11T11:03:17.524Z,171.4
2018-11-11T11:04:17.561Z,177.9
2018-11-11T11:05:17.481Z,181
2018-11-11T11:06:17.658Z,177
2018-11-11T11:07:17.485Z,180.3
2018-11-11T11:08:17.508Z,179.9
2018-11-11T11:09:17.498Z,182.1
2018-11-11T11:10:17.509Z,184.9
2018-11-11T11:11:17.529Z,186
2018-11-11T11:12:17.553Z,188.7
2018-11-11T11:13:17.621Z,193.1
2018-11-11T11:14:17.496Z,190.7
2018-11-11T11:15:17.483Z,182.2
2018-11-11T11:16:17.455Z,191.3
2018-11-11T11:17:17.591Z,189
2018-11-11T11:18:17.501Z,191.6
2018-11-11T11:19:17.476Z,190.6
2018-11-11T11:20:17.537Z,194.7
2018-11-11T11:21:17.462Z,189.6
2018-11-11T11:22:17.542Z,184.9
2018-11-11T11:23:17.523Z,186.3
2018-11-11T11:24:17.529Z,187.9
2018-11-11T11:25:17.591Z,182.9
2018-11-11T11:26:17.530Z,184.1
2018-11-11T11:27:17.696Z,187.3
2018-11-11T11:28:21.189Z,198.5
2018-11-11T11:29:17.465Z,191.2
2018-11-11T11:30:17.519Z,180.3
2018-11-11T11:31:17.604Z,180
2018-11-11T11:32:17.710Z,177
2018-11-11T11:33:17.472Z,181.8
2018-11-11T11:34:17.552Z,190.9
2018-11-11T11:35:17.705Z,203.5
2018-11-11T11:36:17.524Z,200.4
2018-11-11T11:37:17.665Z,210.7
2018-11-11T11:38:17.659Z,212.8
2018-11-11T11:39:18.898Z,211.6
2018-11-11T11:40:17.469Z,219.1
2018-11-11T11:41:17.651Z,219.5
2018-11-11T11:42:17.518Z,219.1
2018-11-11T11:43:17.559Z,216.9
2018-11-11T11:44:17.662Z,212.6
2018-11-11T11:45:17.568Z,219.1
2018-11-11T11:46:17.479Z,211
2018-11-11T11:47:17.639Z,208.7
2018-11-11T11:48:17.557Z,200.8
2018-11-11T11:49:17.476Z,205.9
2018-11-11T11:50:17.626Z,210.5
2018-11-11T11:51:17.449Z,210
2018-11-11T11:52:17.639Z,212.9
2018-11-11T11:53:17.517Z,213.3
2018-11-11T11:54:17.498Z,211.5
2018-11-11T11:55:17.494Z,211.7
2018-11-11T11:56:17.432Z,215.8
2018-11-11T11:57:17.501Z,215.5
2018-11-11T11:58:17.703Z,214.3
2018-11-11T11:59:17.536Z,212.5
2018-11-11T12:00:17.481Z,212.6
2018-11-11T12:01:17.527Z,213.3
2018-11-11T12:02:17.729Z,210.6
2018-11-11T12:03:17.512Z,210.2
2018-11-11T12:04:17.464Z,208.8
2018-11-11T12:05:17.440Z,214.2
2018-11-11T12:06:17.518Z,214.2
2018-11-11T12:07:17.545Z,215.2
2018-11-11T12:08:17.662Z,215.4
2018-11-11T12:09:17.765Z,228.3
2018-11-11T12:10:17.550Z,224.4
2018-11-11T12:11:17.543Z,215.9
2018-11-11T12:12:17.518Z,216.6
2018-11-11T12:13:17.481Z,210.9
2018-11-11T12:14:17.562Z,211.3
2018-11-11T12:15:17.563Z,208.5
2018-11-11T12:16:17.512Z,208.4
2018-11-11T12:17:17.684Z,212.6
2018-11-11T12:18:17.580Z,215.5
2018-11-11T12:19:17.492Z,218.7
2018-11-11T12:20:17.629Z,223.1
2018-11-11T12:21:17.626Z,215.2
2018-11-11T12:22:17.539Z,209.6
2018-11-11T12:23:17.640Z,206.7
2018-11-11T12:24:17.532Z,201.6
2018-11-11T12:25:17.611Z,214.8
2018-11-11T12:26:17.588Z,221.6
2018-11-11T12:27:17.603Z,221
2018-11-11T12:28:19.446Z,217.2
2018-11-11T12:29:17.526Z,212.6
2018-11-11T12:30:17.666Z,216.1
2018-11-11T12:31:17.617Z,215.3
2018-11-11T12:32:17.581Z,213.8
2018-11-11T12:33:17.504Z,214.1
2018-11-11T12:34:17.477Z,214.7
2018-11-11T12:35:17.598Z,211.6
2018-11-11T12:36:17.593Z,211.1
2018-11-11T12:37:17.640Z,206.5
2018-11-11T12:38:17.545Z,212.1
2018-11-11T12:39:17.847Z,200.8
2018-11-11T12:40:17.796Z,203
2018-11-11T12:41:17.560Z,203.4
2018-11-11T12:42:17.492Z,197.2
2018-11-11T12:43:17.706Z,195.4
2018-11-11T12:44:17.618Z,196.7
2018-11-11T12:45:17.445Z,200
2018-11-11T12:46:17.569Z,205
2018-11-11T12:47:17.559Z,201.7
2018-11-11T12:48:17.584Z,199.5
2018-11-11T12:49:17.578Z,200.4
2018-11-11T12:50:17.688Z,199.4
2018-11-11T12:51:17.589Z,204.2
2018-11-11T12:52:17.592Z,204
2018-11-11T12:53:17.530Z,203.5
2018-11-11T12:54:17.537Z,205.8
2018-11-11T12:55:17.745Z,206
2018-11-11T12:56:17.461Z,207.3
2018-11-11T12:57:17.482Z,207.7
2018-11-11T12:58:17.450Z,208.7